sensor_id;sensor_type;location;lat;lon;timestamp;temperature;humidity
25214;DHT22;13160;51.834;4.706;2023-02-28T00:01:48;2.20;99.90
25214;DHT22;13160;51.834;4.706;2023-02-28T00:04:16;2.20;99.90
25214;DHT22;13160;51.834;4.706;2023-02-28T00:06:50;2.10;99.90
25214;DHT22;13160;51.834;4.706;2023-02-28T00:09:19;2.10;99.90
25214;DHT22;13160;51.834;4.706;2023-02-28T00:11:47;2.10;99.90
25214;DHT22;13160;51.834;4.706;2023-02-28T00:14:18;2.10;99.90
25214;DHT22;13160;51.834;4.706;2023-02-28T00:16:46;2.10;99.90
25214;DHT22;13160;51.834;4.706;2023-02-28T00:19:18;2.10;99.90
25214;DHT22;13160;51.834;4.706;2023-02-28T00:21:46;2.10;99.90
25214;DHT22;13160;51.834;4.706;2023-02-28T00:24:17;2.00;99.90
25214;DHT22;13160;51.834;4.706;2023-02-28T00:26:46;2.00;99.90
25214;DHT22;13160;51.834;4.706;2023-02-28T00:29:14;2.00;99.90
25214;DHT22;13160;51.834;4.706;2023-02-28T00:31:44;2.00;99.90
25214;DHT22;13160;51.834;4.706;2023-02-28T00:34:12;2.00;99.90
25214;DHT22;13160;51.834;4.706;2023-02-28T00:36:41;1.90;99.90
25214;DHT22;13160;51.834;4.706;2023-02-28T00:39:12;1.90;99.90
25214;DHT22;13160;51.834;4.706;2023-02-28T00:41:40;1.90;99.90
25214;DHT22;13160;51.834;4.706;2023-02-28T00:44:08;1.90;99.90
25214;DHT22;13160;51.834;4.706;2023-02-28T00:46:36;1.90;99.90
25214;DHT22;13160;51.834;4.706;2023-02-28T00:49:06;1.90;99.90
25214;DHT22;13160;51.834;4.706;2023-02-28T00:51:34;1.90;99.90
25214;DHT22;13160;51.834;4.706;2023-02-28T00:54:05;1.90;99.90
25214;DHT22;13160;51.834;4.706;2023-02-28T00:56:33;1.90;99.90
25214;DHT22;13160;51.834;4.706;2023-02-28T00:59:02;1.90;99.90
25214;DHT22;13160;51.834;4.706;2023-02-28T01:01:31;1.90;99.90
25214;DHT22;13160;51.834;4.706;2023-02-28T01:03:59;2.00;99.90
25214;DHT22;13160;51.834;4.706;2023-02-28T01:06:30;2.00;99.90
25214;DHT22;13160;51.834;4.706;2023-02-28T01:08:58;2.00;99.90
25214;DHT22;13160;51.834;4.706;2023-02-28T01:11:35;2.00;99.90
25214;DHT22;13160;51.834;4.706;2023-02-28T01:14:04;2.00;99.90
25214;DHT22;13160;51.834;4.706;2023-02-28T01:16:33;2.10;99.90
25214;DHT22;13160;51.834;4.706;2023-02-28T01:19:01;2.10;99.90
25214;DHT22;13160;51.834;4.706;2023-02-28T01:21:32;2.10;99.90
25214;DHT22;13160;51.834;4.706;2023-02-28T01:24:02;2.10;99.90
25214;DHT22;13160;51.834;4.706;2023-02-28T01:26:34;2.20;99.90
25214;DHT22;13160;51.834;4.706;2023-02-28T01:29:05;2.20;99.90
25214;DHT22;13160;51.834;4.706;2023-02-28T01:31:33;2.20;99.90
25214;DHT22;13160;51.834;4.706;2023-02-28T01:34:02;2.20;99.90
25214;DHT22;13160;51.834;4.706;2023-02-28T01:36:34;2.30;99.90
25214;DHT22;13160;51.834;4.706;2023-02-28T01:39:03;2.30;99.90
25214;DHT22;13160;51.834;4.706;2023-02-28T01:41:33;2.30;99.90
25214;DHT22;13160;51.834;4.706;2023-02-28T01:44:04;2.30;99.90
25214;DHT22;13160;51.834;4.706;2023-02-28T01:46:35;2.40;99.90
25214;DHT22;13160;51.834;4.706;2023-02-28T01:49:08;2.40;99.90
25214;DHT22;13160;51.834;4.706;2023-02-28T01:51:42;2.40;99.90
25214;DHT22;13160;51.834;4.706;2023-02-28T01:54:15;2.40;99.90
25214;DHT22;13160;51.834;4.706;2023-02-28T01:56:48;2.50;99.90
25214;DHT22;13160;51.834;4.706;2023-02-28T01:59:23;2.50;99.90
25214;DHT22;13160;51.834;4.706;2023-02-28T02:01:54;2.50;99.90
25214;DHT22;13160;51.834;4.706;2023-02-28T02:04:24;2.50;99.90
25214;DHT22;13160;51.834;4.706;2023-02-28T02:06:56;2.50;99.90
25214;DHT22;13160;51.834;4.706;2023-02-28T02:09:26;2.50;99.90
25214;DHT22;13160;51.834;4.706;2023-02-28T02:11:55;2.50;99.90
25214;DHT22;13160;51.834;4.706;2023-02-28T02:14:40;2.60;99.90
25214;DHT22;13160;51.834;4.706;2023-02-28T02:17:21;2.60;99.90
25214;DHT22;13160;51.834;4.706;2023-02-28T02:23:31;2.70;99.90
25214;DHT22;13160;51.834;4.706;2023-02-28T02:26:23;2.70;99.90
25214;DHT22;13160;51.834;4.706;2023-02-28T02:33:10;2.80;99.90
25214;DHT22;13160;51.834;4.706;2023-02-28T02:36:01;2.80;99.90
25214;DHT22;13160;51.834;4.706;2023-02-28T02:38:34;2.80;99.90
25214;DHT22;13160;51.834;4.706;2023-02-28T02:41:08;2.80;99.90
25214;DHT22;13160;51.834;4.706;2023-02-28T02:43:46;2.80;99.90
25214;DHT22;13160;51.834;4.706;2023-02-28T02:46:19;2.90;99.90
25214;DHT22;13160;51.834;4.706;2023-02-28T02:48:55;2.90;99.90
25214;DHT22;13160;51.834;4.706;2023-02-28T02:51:29;2.90;99.90
25214;DHT22;13160;51.834;4.706;2023-02-28T02:54:03;2.90;99.90
25214;DHT22;13160;51.834;4.706;2023-02-28T02:56:36;3.00;99.90
25214;DHT22;13160;51.834;4.706;2023-02-28T02:59:12;3.00;99.90
25214;DHT22;13160;51.834;4.706;2023-02-28T03:01:49;3.00;99.90
25214;DHT22;13160;51.834;4.706;2023-02-28T03:04:22;3.00;99.90
25214;DHT22;13160;51.834;4.706;2023-02-28T03:06:52;3.00;99.90
25214;DHT22;13160;51.834;4.706;2023-02-28T03:09:22;3.10;99.90
25214;DHT22;13160;51.834;4.706;2023-02-28T03:11:55;3.10;99.90
25214;DHT22;13160;51.834;4.706;2023-02-28T03:14:37;3.10;99.90
25214;DHT22;13160;51.834;4.706;2023-02-28T03:17:30;3.10;99.90
25214;DHT22;13160;51.834;4.706;2023-02-28T03:20:17;3.10;99.90
25214;DHT22;13160;51.834;4.706;2023-02-28T03:23:03;3.20;99.90
25214;DHT22;13160;51.834;4.706;2023-02-28T03:25:46;3.10;99.90
25214;DHT22;13160;51.834;4.706;2023-02-28T03:28:30;3.20;99.90
25214;DHT22;13160;51.834;4.706;2023-02-28T03:31:14;3.20;99.90
25214;DHT22;13160;51.834;4.706;2023-02-28T03:33:49;3.20;99.90
25214;DHT22;13160;51.834;4.706;2023-02-28T03:36:25;3.20;99.90
25214;DHT22;13160;51.834;4.706;2023-02-28T03:39:02;3.20;99.90
25214;DHT22;13160;51.834;4.706;2023-02-28T03:41:36;3.30;99.90
25214;DHT22;13160;51.834;4.706;2023-02-28T03:44:10;3.30;99.90
25214;DHT22;13160;51.834;4.706;2023-02-28T03:46:47;3.30;99.90
25214;DHT22;13160;51.834;4.706;2023-02-28T03:49:21;3.30;99.90
25214;DHT22;13160;51.834;4.706;2023-02-28T03:51:52;3.40;99.90
25214;DHT22;13160;51.834;4.706;2023-02-28T03:54:26;3.30;99.90
25214;DHT22;13160;51.834;4.706;2023-02-28T03:57:01;3.40;99.90
25214;DHT22;13160;51.834;4.706;2023-02-28T03:59:35;3.40;99.90
25214;DHT22;13160;51.834;4.706;2023-02-28T04:02:05;3.40;99.90
25214;DHT22;13160;51.834;4.706;2023-02-28T04:04:37;3.40;99.90
25214;DHT22;13160;51.834;4.706;2023-02-28T04:07:18;3.40;99.90
25214;DHT22;13160;51.834;4.706;2023-02-28T04:09:48;3.40;99.90
25214;DHT22;13160;51.834;4.706;2023-02-28T04:12:18;3.40;99.90
25214;DHT22;13160;51.834;4.706;2023-02-28T04:14:47;3.50;99.90
25214;DHT22;13160;51.834;4.706;2023-02-28T04:17:16;3.50;99.90
25214;DHT22;13160;51.834;4.706;2023-02-28T04:19:50;3.50;99.90
25214;DHT22;13160;51.834;4.706;2023-02-28T04:22:24;3.50;99.90
25214;DHT22;13160;51.834;4.706;2023-02-28T04:24:55;3.50;99.90
25214;DHT22;13160;51.834;4.706;2023-02-28T04:27:23;3.50;99.90
25214;DHT22;13160;51.834;4.706;2023-02-28T04:29:51;3.60;99.90
25214;DHT22;13160;51.834;4.706;2023-02-28T04:32:19;3.60;99.90
25214;DHT22;13160;51.834;4.706;2023-02-28T04:34:48;3.60;99.90
25214;DHT22;13160;51.834;4.706;2023-02-28T04:37:16;3.60;99.90
25214;DHT22;13160;51.834;4.706;2023-02-28T04:39:44;3.60;99.90
25214;DHT22;13160;51.834;4.706;2023-02-28T04:42:18;3.60;99.90
25214;DHT22;13160;51.834;4.706;2023-02-28T04:44:46;3.60;99.90
25214;DHT22;13160;51.834;4.706;2023-02-28T04:47:14;3.60;99.90
25214;DHT22;13160;51.834;4.706;2023-02-28T04:49:46;3.60;99.90
25214;DHT22;13160;51.834;4.706;2023-02-28T04:52:14;3.60;99.90
25214;DHT22;13160;51.834;4.706;2023-02-28T04:54:42;3.60;99.90
25214;DHT22;13160;51.834;4.706;2023-02-28T04:57:11;3.60;99.90
25214;DHT22;13160;51.834;4.706;2023-02-28T04:59:41;3.60;99.90
25214;DHT22;13160;51.834;4.706;2023-02-28T05:02:09;3.60;99.90
25214;DHT22;13160;51.834;4.706;2023-02-28T05:04:37;3.60;99.90
25214;DHT22;13160;51.834;4.706;2023-02-28T05:07:06;3.60;99.90
25214;DHT22;13160;51.834;4.706;2023-02-28T05:09:34;3.60;99.90
25214;DHT22;13160;51.834;4.706;2023-02-28T05:12:02;3.60;99.90
25214;DHT22;13160;51.834;4.706;2023-02-28T05:14:30;3.60;99.90
25214;DHT22;13160;51.834;4.706;2023-02-28T05:17:00;3.60;99.90
25214;DHT22;13160;51.834;4.706;2023-02-28T05:19:30;3.60;99.90
25214;DHT22;13160;51.834;4.706;2023-02-28T05:22:00;3.60;99.90
25214;DHT22;13160;51.834;4.706;2023-02-28T05:24:29;3.60;99.90
25214;DHT22;13160;51.834;4.706;2023-02-28T05:26:58;3.60;99.90
25214;DHT22;13160;51.834;4.706;2023-02-28T05:29:26;3.60;99.90
25214;DHT22;13160;51.834;4.706;2023-02-28T05:31:54;3.60;99.90
25214;DHT22;13160;51.834;4.706;2023-02-28T05:34:24;3.60;99.90
25214;DHT22;13160;51.834;4.706;2023-02-28T05:36:53;3.60;99.90
25214;DHT22;13160;51.834;4.706;2023-02-28T05:39:21;3.60;99.90
25214;DHT22;13160;51.834;4.706;2023-02-28T05:41:49;3.60;99.90
25214;DHT22;13160;51.834;4.706;2023-02-28T05:44:18;3.60;99.90
25214;DHT22;13160;51.834;4.706;2023-02-28T05:46:47;3.60;99.90
25214;DHT22;13160;51.834;4.706;2023-02-28T05:49:15;3.60;99.90
25214;DHT22;13160;51.834;4.706;2023-02-28T05:51:45;3.60;99.90
25214;DHT22;13160;51.834;4.706;2023-02-28T05:54:13;3.60;99.90
25214;DHT22;13160;51.834;4.706;2023-02-28T05:56:44;3.60;99.90
25214;DHT22;13160;51.834;4.706;2023-02-28T05:59:13;3.60;99.90
25214;DHT22;13160;51.834;4.706;2023-02-28T06:01:42;3.60;99.90
25214;DHT22;13160;51.834;4.706;2023-02-28T06:04:16;3.50;99.90
25214;DHT22;13160;51.834;4.706;2023-02-28T06:06:59;3.50;99.90
25214;DHT22;13160;51.834;4.706;2023-02-28T06:09:28;3.50;99.90
25214;DHT22;13160;51.834;4.706;2023-02-28T06:11:57;3.50;99.90
25214;DHT22;13160;51.834;4.706;2023-02-28T06:14:26;3.50;99.90
25214;DHT22;13160;51.834;4.706;2023-02-28T06:16:55;3.50;99.90
25214;DHT22;13160;51.834;4.706;2023-02-28T06:19:25;3.50;99.90
25214;DHT22;13160;51.834;4.706;2023-02-28T06:21:54;3.40;99.90
25214;DHT22;13160;51.834;4.706;2023-02-28T06:24:25;3.40;99.90
25214;DHT22;13160;51.834;4.706;2023-02-28T06:26:58;3.40;99.90
25214;DHT22;13160;51.834;4.706;2023-02-28T06:29:34;3.40;99.90
25214;DHT22;13160;51.834;4.706;2023-02-28T06:32:06;3.40;99.90
25214;DHT22;13160;51.834;4.706;2023-02-28T06:34:35;3.40;99.90
25214;DHT22;13160;51.834;4.706;2023-02-28T06:37:04;3.40;99.90
25214;DHT22;13160;51.834;4.706;2023-02-28T06:39:33;3.40;99.90
25214;DHT22;13160;51.834;4.706;2023-02-28T06:42:04;3.30;99.90
25214;DHT22;13160;51.834;4.706;2023-02-28T06:44:32;3.40;99.90
25214;DHT22;13160;51.834;4.706;2023-02-28T06:47:06;3.30;99.90
25214;DHT22;13160;51.834;4.706;2023-02-28T06:49:35;3.40;99.90
25214;DHT22;13160;51.834;4.706;2023-02-28T06:55:44;3.40;99.90
25214;DHT22;13160;51.834;4.706;2023-02-28T06:58:12;3.30;99.90
25214;DHT22;13160;51.834;4.706;2023-02-28T07:00:43;3.30;99.90
25214;DHT22;13160;51.834;4.706;2023-02-28T07:03:12;3.40;99.90
25214;DHT22;13160;51.834;4.706;2023-02-28T07:05:44;3.40;99.90
25214;DHT22;13160;51.834;4.706;2023-02-28T07:08:13;3.30;99.90
25214;DHT22;13160;51.834;4.706;2023-02-28T07:10:41;3.30;99.90
25214;DHT22;13160;51.834;4.706;2023-02-28T07:13:11;3.20;99.90
25214;DHT22;13160;51.834;4.706;2023-02-28T07:15:39;3.30;99.90
25214;DHT22;13160;51.834;4.706;2023-02-28T07:18:10;3.20;99.90
25214;DHT22;13160;51.834;4.706;2023-02-28T07:20:38;3.20;99.90
25214;DHT22;13160;51.834;4.706;2023-02-28T07:23:06;3.20;99.90
25214;DHT22;13160;51.834;4.706;2023-02-28T07:25:34;3.30;99.90
25214;DHT22;13160;51.834;4.706;2023-02-28T07:28:05;3.30;99.90
25214;DHT22;13160;51.834;4.706;2023-02-28T07:30:34;3.30;99.90
25214;DHT22;13160;51.834;4.706;2023-02-28T07:33:06;3.30;99.90
25214;DHT22;13160;51.834;4.706;2023-02-28T07:35:34;3.30;99.90
25214;DHT22;13160;51.834;4.706;2023-02-28T07:38:02;3.30;99.90
25214;DHT22;13160;51.834;4.706;2023-02-28T07:40:31;3.30;99.90
25214;DHT22;13160;51.834;4.706;2023-02-28T07:43:00;3.30;99.90
25214;DHT22;13160;51.834;4.706;2023-02-28T07:45:30;3.30;99.90
25214;DHT22;13160;51.834;4.706;2023-02-28T07:48:02;3.30;99.90
25214;DHT22;13160;51.834;4.706;2023-02-28T07:50:33;3.30;99.90
25214;DHT22;13160;51.834;4.706;2023-02-28T07:53:01;3.30;99.90
25214;DHT22;13160;51.834;4.706;2023-02-28T07:55:32;3.30;99.90
25214;DHT22;13160;51.834;4.706;2023-02-28T07:58:00;3.30;99.90
25214;DHT22;13160;51.834;4.706;2023-02-28T08:00:28;3.30;99.90
25214;DHT22;13160;51.834;4.706;2023-02-28T08:02:58;3.30;99.90
25214;DHT22;13160;51.834;4.706;2023-02-28T08:05:28;3.30;99.90
25214;DHT22;13160;51.834;4.706;2023-02-28T08:07:56;3.40;99.90
25214;DHT22;13160;51.834;4.706;2023-02-28T08:10:25;3.30;99.90
25214;DHT22;13160;51.834;4.706;2023-02-28T08:12:53;3.40;99.90
25214;DHT22;13160;51.834;4.706;2023-02-28T08:15:21;3.40;99.90
25214;DHT22;13160;51.834;4.706;2023-02-28T08:17:49;3.40;99.90
25214;DHT22;13160;51.834;4.706;2023-02-28T08:20:18;3.40;99.90
25214;DHT22;13160;51.834;4.706;2023-02-28T08:22:48;3.40;99.90
25214;DHT22;13160;51.834;4.706;2023-02-28T08:25:16;3.40;99.90
25214;DHT22;13160;51.834;4.706;2023-02-28T08:27:45;3.40;99.90
25214;DHT22;13160;51.834;4.706;2023-02-28T08:30:14;3.30;99.90
25214;DHT22;13160;51.834;4.706;2023-02-28T08:32:45;3.30;99.90
25214;DHT22;13160;51.834;4.706;2023-02-28T08:35:14;3.30;99.90
25214;DHT22;13160;51.834;4.706;2023-02-28T08:37:45;3.30;99.90
25214;DHT22;13160;51.834;4.706;2023-02-28T08:40:17;3.30;99.90
25214;DHT22;13160;51.834;4.706;2023-02-28T08:42:46;3.40;99.90
25214;DHT22;13160;51.834;4.706;2023-02-28T08:45:14;3.40;99.90
25214;DHT22;13160;51.834;4.706;2023-02-28T08:47:43;3.40;99.90
25214;DHT22;13160;51.834;4.706;2023-02-28T08:50:11;3.40;99.90
25214;DHT22;13160;51.834;4.706;2023-02-28T08:52:42;3.50;99.90
25214;DHT22;13160;51.834;4.706;2023-02-28T08:55:12;3.50;99.90
25214;DHT22;13160;51.834;4.706;2023-02-28T08:57:40;3.60;99.90
25214;DHT22;13160;51.834;4.706;2023-02-28T09:00:11;3.60;99.90
25214;DHT22;13160;51.834;4.706;2023-02-28T09:02:41;3.60;99.90
25214;DHT22;13160;51.834;4.706;2023-02-28T09:05:10;3.60;99.90
25214;DHT22;13160;51.834;4.706;2023-02-28T09:07:38;3.60;99.90
25214;DHT22;13160;51.834;4.706;2023-02-28T09:10:08;3.60;99.90
25214;DHT22;13160;51.834;4.706;2023-02-28T09:12:38;3.60;99.90
25214;DHT22;13160;51.834;4.706;2023-02-28T09:15:07;3.70;99.90
25214;DHT22;13160;51.834;4.706;2023-02-28T09:17:36;3.70;99.90
25214;DHT22;13160;51.834;4.706;2023-02-28T09:20:06;3.70;99.90
25214;DHT22;13160;51.834;4.706;2023-02-28T09:22:35;3.80;99.90
25214;DHT22;13160;51.834;4.706;2023-02-28T09:25:06;3.80;99.90
25214;DHT22;13160;51.834;4.706;2023-02-28T09:27:35;3.90;99.90
25214;DHT22;13160;51.834;4.706;2023-02-28T09:30:07;3.90;99.90
25214;DHT22;13160;51.834;4.706;2023-02-28T09:32:38;4.00;99.90
25214;DHT22;13160;51.834;4.706;2023-02-28T09:35:07;4.00;99.90
25214;DHT22;13160;51.834;4.706;2023-02-28T09:37:40;4.00;99.90
25214;DHT22;13160;51.834;4.706;2023-02-28T09:40:09;4.00;99.90
25214;DHT22;13160;51.834;4.706;2023-02-28T09:42:39;4.10;99.90
25214;DHT22;13160;51.834;4.706;2023-02-28T09:45:16;4.10;99.90
25214;DHT22;13160;51.834;4.706;2023-02-28T09:47:51;4.20;99.90
25214;DHT22;13160;51.834;4.706;2023-02-28T09:50:28;4.20;99.90
25214;DHT22;13160;51.834;4.706;2023-02-28T09:53:02;4.20;99.90
25214;DHT22;13160;51.834;4.706;2023-02-28T09:55:37;4.20;99.90
25214;DHT22;13160;51.834;4.706;2023-02-28T09:58:18;4.30;99.90
25214;DHT22;13160;51.834;4.706;2023-02-28T10:00:56;4.30;99.90
25214;DHT22;13160;51.834;4.706;2023-02-28T10:03:32;4.20;99.90
25214;DHT22;13160;51.834;4.706;2023-02-28T10:06:10;4.30;99.90
25214;DHT22;13160;51.834;4.706;2023-02-28T10:08:47;4.30;99.90
25214;DHT22;13160;51.834;4.706;2023-02-28T10:11:20;4.30;99.90
25214;DHT22;13160;51.834;4.706;2023-02-28T10:13:53;4.30;99.90
25214;DHT22;13160;51.834;4.706;2023-02-28T10:16:31;4.40;99.90
25214;DHT22;13160;51.834;4.706;2023-02-28T10:19:04;4.50;99.90
25214;DHT22;13160;51.834;4.706;2023-02-28T10:21:38;4.60;99.90
25214;DHT22;13160;51.834;4.706;2023-02-28T10:24:19;4.70;99.90
25214;DHT22;13160;51.834;4.706;2023-02-28T10:26:49;4.80;99.90
25214;DHT22;13160;51.834;4.706;2023-02-28T10:29:20;4.90;99.90
25214;DHT22;13160;51.834;4.706;2023-02-28T10:31:50;5.00;99.90
25214;DHT22;13160;51.834;4.706;2023-02-28T10:37:55;5.10;99.90
25214;DHT22;13160;51.834;4.706;2023-02-28T10:40:30;5.20;99.90
25214;DHT22;13160;51.834;4.706;2023-02-28T10:43:02;5.40;99.90
25214;DHT22;13160;51.834;4.706;2023-02-28T10:45:34;5.40;99.90
25214;DHT22;13160;51.834;4.706;2023-02-28T10:48:24;5.50;99.90
25214;DHT22;13160;51.834;4.706;2023-02-28T10:50:56;5.50;99.90
25214;DHT22;13160;51.834;4.706;2023-02-28T10:53:33;5.60;99.90
25214;DHT22;13160;51.834;4.706;2023-02-28T10:56:25;5.70;99.90
25214;DHT22;13160;51.834;4.706;2023-02-28T10:58:56;5.70;99.90
25214;DHT22;13160;51.834;4.706;2023-02-28T11:01:38;5.80;99.90
25214;DHT22;13160;51.834;4.706;2023-02-28T11:04:20;5.80;99.90
25214;DHT22;13160;51.834;4.706;2023-02-28T11:07:04;5.80;99.90
25214;DHT22;13160;51.834;4.706;2023-02-28T11:09:35;5.90;99.90
25214;DHT22;13160;51.834;4.706;2023-02-28T11:12:10;6.00;99.90
25214;DHT22;13160;51.834;4.706;2023-02-28T11:14:51;6.00;99.50
25214;DHT22;13160;51.834;4.706;2023-02-28T11:17:22;6.10;98.60
25214;DHT22;13160;51.834;4.706;2023-02-28T11:19:55;6.20;98.50
25214;DHT22;13160;51.834;4.706;2023-02-28T11:22:28;6.30;97.40
25214;DHT22;13160;51.834;4.706;2023-02-28T11:25:02;6.40;96.70
25214;DHT22;13160;51.834;4.706;2023-02-28T11:27:47;6.40;96.20
25214;DHT22;13160;51.834;4.706;2023-02-28T11:30:29;6.60;96.30
25214;DHT22;13160;51.834;4.706;2023-02-28T11:33:20;6.60;96.00
25214;DHT22;13160;51.834;4.706;2023-02-28T11:35:55;6.70;94.30
25214;DHT22;13160;51.834;4.706;2023-02-28T11:38:26;6.70;95.40
25214;DHT22;13160;51.834;4.706;2023-02-28T11:41:06;6.80;94.80
25214;DHT22;13160;51.834;4.706;2023-02-28T11:43:55;6.80;93.00
25214;DHT22;13160;51.834;4.706;2023-02-28T11:46:37;6.80;93.30
25214;DHT22;13160;51.834;4.706;2023-02-28T11:49:30;6.80;92.90
25214;DHT22;13160;51.834;4.706;2023-02-28T11:52:10;6.90;93.40
25214;DHT22;13160;51.834;4.706;2023-02-28T11:54:59;6.90;92.30
25214;DHT22;13160;51.834;4.706;2023-02-28T11:57:49;6.90;92.10
25214;DHT22;13160;51.834;4.706;2023-02-28T12:00:40;6.90;92.10
25214;DHT22;13160;51.834;4.706;2023-02-28T12:03:27;7.00;92.00
25214;DHT22;13160;51.834;4.706;2023-02-28T12:06:05;7.00;91.70
25214;DHT22;13160;51.834;4.706;2023-02-28T12:08:49;7.10;91.10
25214;DHT22;13160;51.834;4.706;2023-02-28T12:11:39;7.10;90.60
25214;DHT22;13160;51.834;4.706;2023-02-28T12:14:29;7.20;91.40
25214;DHT22;13160;51.834;4.706;2023-02-28T12:17:22;7.20;90.70
25214;DHT22;13160;51.834;4.706;2023-02-28T12:20:02;7.20;88.70
25214;DHT22;13160;51.834;4.706;2023-02-28T12:22:42;7.20;89.20
25214;DHT22;13160;51.834;4.706;2023-02-28T12:28:23;7.20;89.10
25214;DHT22;13160;51.834;4.706;2023-02-28T12:30:58;7.30;89.50
25214;DHT22;13160;51.834;4.706;2023-02-28T12:33:32;7.30;89.40
25214;DHT22;13160;51.834;4.706;2023-02-28T12:36:10;7.30;86.70
25214;DHT22;13160;51.834;4.706;2023-02-28T12:38:44;7.40;86.70
25214;DHT22;13160;51.834;4.706;2023-02-28T12:41:17;7.40;87.20
25214;DHT22;13160;51.834;4.706;2023-02-28T12:43:55;7.40;86.40
25214;DHT22;13160;51.834;4.706;2023-02-28T12:46:32;7.50;85.20
25214;DHT22;13160;51.834;4.706;2023-02-28T12:49:06;7.50;85.70
25214;DHT22;13160;51.834;4.706;2023-02-28T12:51:37;7.50;85.10
25214;DHT22;13160;51.834;4.706;2023-02-28T12:54:12;7.60;85.80
25214;DHT22;13160;51.834;4.706;2023-02-28T12:56:48;7.60;84.20
25214;DHT22;13160;51.834;4.706;2023-02-28T12:59:26;7.60;83.60
25214;DHT22;13160;51.834;4.706;2023-02-28T13:05:50;7.60;82.00
25214;DHT22;13160;51.834;4.706;2023-02-28T13:11:38;7.60;82.20
25214;DHT22;13160;51.834;4.706;2023-02-28T13:14:20;7.60;81.70
25214;DHT22;13160;51.834;4.706;2023-02-28T13:16:59;7.60;81.50
25214;DHT22;13160;51.834;4.706;2023-02-28T13:19:32;7.60;80.90
25214;DHT22;13160;51.834;4.706;2023-02-28T13:22:02;7.60;80.00
25214;DHT22;13160;51.834;4.706;2023-02-28T13:24:46;7.60;79.40
25214;DHT22;13160;51.834;4.706;2023-02-28T13:27:35;7.60;79.70
25214;DHT22;13160;51.834;4.706;2023-02-28T13:33:31;7.60;79.70
25214;DHT22;13160;51.834;4.706;2023-02-28T13:36:22;7.60;79.10
25214;DHT22;13160;51.834;4.706;2023-02-28T13:38:53;7.60;79.10
25214;DHT22;13160;51.834;4.706;2023-02-28T13:41:44;7.60;79.00
25214;DHT22;13160;51.834;4.706;2023-02-28T13:44:16;7.60;78.60
25214;DHT22;13160;51.834;4.706;2023-02-28T13:47:27;7.60;78.90
25214;DHT22;13160;51.834;4.706;2023-02-28T13:50:18;7.60;76.80
25214;DHT22;13160;51.834;4.706;2023-02-28T13:56:03;7.60;77.40
25214;DHT22;13160;51.834;4.706;2023-02-28T13:58:44;7.60;78.40
25214;DHT22;13160;51.834;4.706;2023-02-28T14:01:40;7.60;78.10
25214;DHT22;13160;51.834;4.706;2023-02-28T14:04:53;7.60;77.80
25214;DHT22;13160;51.834;4.706;2023-02-28T14:07:30;7.60;77.80
25214;DHT22;13160;51.834;4.706;2023-02-28T14:10:05;7.50;78.00
25214;DHT22;13160;51.834;4.706;2023-02-28T14:12:56;7.60;77.50
25214;DHT22;13160;51.834;4.706;2023-02-28T14:15:41;7.50;76.00
25214;DHT22;13160;51.834;4.706;2023-02-28T14:18:34;7.50;76.80
25214;DHT22;13160;51.834;4.706;2023-02-28T14:21:13;7.50;77.10
25214;DHT22;13160;51.834;4.706;2023-02-28T14:27:24;7.50;76.90
25214;DHT22;13160;51.834;4.706;2023-02-28T14:33:42;7.50;76.90
25214;DHT22;13160;51.834;4.706;2023-02-28T14:36:21;7.40;76.70
25214;DHT22;13160;51.834;4.706;2023-02-28T14:38:52;7.40;77.10
25214;DHT22;13160;51.834;4.706;2023-02-28T14:41:29;7.50;77.40
25214;DHT22;13160;51.834;4.706;2023-02-28T14:43:59;7.50;77.00
25214;DHT22;13160;51.834;4.706;2023-02-28T14:46:35;7.50;77.40
25214;DHT22;13160;51.834;4.706;2023-02-28T14:49:06;7.50;76.70
25214;DHT22;13160;51.834;4.706;2023-02-28T14:51:37;7.50;75.70
25214;DHT22;13160;51.834;4.706;2023-02-28T14:54:06;7.40;75.20
25214;DHT22;13160;51.834;4.706;2023-02-28T14:56:37;7.40;75.50
25214;DHT22;13160;51.834;4.706;2023-02-28T14:59:24;7.40;75.60
25214;DHT22;13160;51.834;4.706;2023-02-28T15:02:19;7.40;74.90
25214;DHT22;13160;51.834;4.706;2023-02-28T15:04:57;7.40;75.20
25214;DHT22;13160;51.834;4.706;2023-02-28T15:07:28;7.40;74.30
25214;DHT22;13160;51.834;4.706;2023-02-28T15:10:10;7.40;75.40
25214;DHT22;13160;51.834;4.706;2023-02-28T15:12:52;7.30;75.50
25214;DHT22;13160;51.834;4.706;2023-02-28T15:15:26;7.30;75.10
25214;DHT22;13160;51.834;4.706;2023-02-28T15:18:19;7.30;75.10
25214;DHT22;13160;51.834;4.706;2023-02-28T15:20:51;7.30;75.90
25214;DHT22;13160;51.834;4.706;2023-02-28T15:23:22;7.30;75.50
25214;DHT22;13160;51.834;4.706;2023-02-28T15:25:52;7.30;75.40
25214;DHT22;13160;51.834;4.706;2023-02-28T15:28:23;7.30;75.20
25214;DHT22;13160;51.834;4.706;2023-02-28T15:30:54;7.30;75.70
25214;DHT22;13160;51.834;4.706;2023-02-28T15:33:25;7.20;76.30
25214;DHT22;13160;51.834;4.706;2023-02-28T15:36:10;7.20;75.60
25214;DHT22;13160;51.834;4.706;2023-02-28T15:38:43;7.20;75.30
25214;DHT22;13160;51.834;4.706;2023-02-28T15:41:24;7.20;75.80
25214;DHT22;13160;51.834;4.706;2023-02-28T15:44:14;7.20;75.50
25214;DHT22;13160;51.834;4.706;2023-02-28T15:46:58;7.20;75.30
25214;DHT22;13160;51.834;4.706;2023-02-28T15:49:36;7.10;75.80
25214;DHT22;13160;51.834;4.706;2023-02-28T15:52:14;7.10;76.00
25214;DHT22;13160;51.834;4.706;2023-02-28T15:54:46;7.10;75.30
25214;DHT22;13160;51.834;4.706;2023-02-28T15:57:18;7.10;75.30
25214;DHT22;13160;51.834;4.706;2023-02-28T15:59:51;7.00;75.20
25214;DHT22;13160;51.834;4.706;2023-02-28T16:02:30;7.00;75.50
25214;DHT22;13160;51.834;4.706;2023-02-28T16:05:12;7.00;75.90
25214;DHT22;13160;51.834;4.706;2023-02-28T16:07:48;7.00;75.90
25214;DHT22;13160;51.834;4.706;2023-02-28T16:10:18;7.00;75.70
25214;DHT22;13160;51.834;4.706;2023-02-28T16:12:47;7.00;75.80
25214;DHT22;13160;51.834;4.706;2023-02-28T16:15:20;7.00;75.80
25214;DHT22;13160;51.834;4.706;2023-02-28T16:17:51;6.90;76.20
25214;DHT22;13160;51.834;4.706;2023-02-28T16:20:21;6.90;76.70
25214;DHT22;13160;51.834;4.706;2023-02-28T16:22:53;6.90;76.50
25214;DHT22;13160;51.834;4.706;2023-02-28T16:25:28;6.90;76.50
25214;DHT22;13160;51.834;4.706;2023-02-28T16:28:01;6.90;76.90
25214;DHT22;13160;51.834;4.706;2023-02-28T16:30:30;6.80;77.30
25214;DHT22;13160;51.834;4.706;2023-02-28T16:32:59;6.80;77.50
25214;DHT22;13160;51.834;4.706;2023-02-28T16:35:27;6.80;77.40
25214;DHT22;13160;51.834;4.706;2023-02-28T16:37:55;6.80;77.90
25214;DHT22;13160;51.834;4.706;2023-02-28T16:40:26;6.70;77.90
25214;DHT22;13160;51.834;4.706;2023-02-28T16:42:58;6.70;78.00
25214;DHT22;13160;51.834;4.706;2023-02-28T16:45:28;6.70;78.40
25214;DHT22;13160;51.834;4.706;2023-02-28T16:47:57;6.70;78.50
25214;DHT22;13160;51.834;4.706;2023-02-28T16:50:28;6.60;79.30
25214;DHT22;13160;51.834;4.706;2023-02-28T16:52:59;6.60;78.90
25214;DHT22;13160;51.834;4.706;2023-02-28T16:55:29;6.60;79.00
25214;DHT22;13160;51.834;4.706;2023-02-28T16:57:59;6.50;79.00
25214;DHT22;13160;51.834;4.706;2023-02-28T17:00:30;6.50;79.20
25214;DHT22;13160;51.834;4.706;2023-02-28T17:02:59;6.50;79.40
25214;DHT22;13160;51.834;4.706;2023-02-28T17:05:42;6.40;79.60